sensor_id;sensor_type;location;lat;lon;timestamp;temperature;humidity
10245;DHT22;5167;52.164;10.530;2022-08-19T00:01:22;24.10;21.20
10245;DHT22;5167;52.164;10.530;2022-08-19T00:03:48;24.10;21.10
10245;DHT22;5167;52.164;10.530;2022-08-19T00:06:14;24.10;21.60
10245;DHT22;5167;52.164;10.530;2022-08-19T00:08:40;24.00;21.40
10245;DHT22;5167;52.164;10.530;2022-08-19T00:11:05;24.00;21.40
10245;DHT22;5167;52.164;10.530;2022-08-19T00:13:31;24.10;21.20
10245;DHT22;5167;52.164;10.530;2022-08-19T00:15:57;24.00;21.70
10245;DHT22;5167;52.164;10.530;2022-08-19T00:18:24;24.00;22.20
10245;DHT22;5167;52.164;10.530;2022-08-19T00:20:49;24.00;21.60
10245;DHT22;5167;52.164;10.530;2022-08-19T00:23:15;24.00;22.00
10245;DHT22;5167;52.164;10.530;2022-08-19T00:25:41;24.00;22.10
10245;DHT22;5167;52.164;10.530;2022-08-19T00:28:06;24.00;22.00
10245;DHT22;5167;52.164;10.530;2022-08-19T00:30:32;24.00;22.50
10245;DHT22;5167;52.164;10.530;2022-08-19T00:32:58;24.00;22.40
10245;DHT22;5167;52.164;10.530;2022-08-19T00:35:24;24.00;22.50
10245;DHT22;5167;52.164;10.530;2022-08-19T00:37:52;24.00;22.30
10245;DHT22;5167;52.164;10.530;2022-08-19T00:40:18;24.00;21.70
10245;DHT22;5167;52.164;10.530;2022-08-19T00:42:44;23.90;22.50
10245;DHT22;5167;52.164;10.530;2022-08-19T00:45:17;23.90;22.70
10245;DHT22;5167;52.164;10.530;2022-08-19T00:47:43;23.90;22.70
10245;DHT22;5167;52.164;10.530;2022-08-19T00:50:11;23.90;22.30
10245;DHT22;5167;52.164;10.530;2022-08-19T00:52:44;23.90;21.70
10245;DHT22;5167;52.164;10.530;2022-08-19T00:55:14;23.80;21.70
10245;DHT22;5167;52.164;10.530;2022-08-19T00:57:43;23.90;21.20
10245;DHT22;5167;52.164;10.530;2022-08-19T01:00:15;23.90;20.00
10245;DHT22;5167;52.164;10.530;2022-08-19T01:02:41;23.80;20.50
10245;DHT22;5167;52.164;10.530;2022-08-19T01:05:15;23.80;20.10
10245;DHT22;5167;52.164;10.530;2022-08-19T01:07:41;23.70;20.30
10245;DHT22;5167;52.164;10.530;2022-08-19T01:10:13;23.70;20.70
10245;DHT22;5167;52.164;10.530;2022-08-19T01:12:39;23.60;20.40
10245;DHT22;5167;52.164;10.530;2022-08-19T01:15:08;23.60;20.60
10245;DHT22;5167;52.164;10.530;2022-08-19T01:17:36;23.60;20.40
10245;DHT22;5167;52.164;10.530;2022-08-19T01:20:04;23.50;20.60
10245;DHT22;5167;52.164;10.530;2022-08-19T01:22:41;23.60;20.20
10245;DHT22;5167;52.164;10.530;2022-08-19T01:25:08;23.50;21.20
10245;DHT22;5167;52.164;10.530;2022-08-19T01:27:42;23.50;21.10
10245;DHT22;5167;52.164;10.530;2022-08-19T01:30:11;23.50;20.90
10245;DHT22;5167;52.164;10.530;2022-08-19T01:32:36;23.50;20.40
10245;DHT22;5167;52.164;10.530;2022-08-19T01:35:03;23.50;20.70
10245;DHT22;5167;52.164;10.530;2022-08-19T01:37:30;23.50;20.90
10245;DHT22;5167;52.164;10.530;2022-08-19T01:40:07;23.50;21.80
10245;DHT22;5167;52.164;10.530;2022-08-19T01:42:33;23.40;21.80
10245;DHT22;5167;52.164;10.530;2022-08-19T01:45:00;23.50;21.40
10245;DHT22;5167;52.164;10.530;2022-08-19T01:47:25;23.50;20.40
10245;DHT22;5167;52.164;10.530;2022-08-19T01:49:51;23.50;21.00
10245;DHT22;5167;52.164;10.530;2022-08-19T01:52:16;23.40;20.60
10245;DHT22;5167;52.164;10.530;2022-08-19T01:54:42;23.40;20.70
10245;DHT22;5167;52.164;10.530;2022-08-19T01:57:10;23.40;20.60
10245;DHT22;5167;52.164;10.530;2022-08-19T01:59:38;23.30;20.80
10245;DHT22;5167;52.164;10.530;2022-08-19T02:02:05;23.40;21.30
10245;DHT22;5167;52.164;10.530;2022-08-19T02:04:34;23.30;20.90
10245;DHT22;5167;52.164;10.530;2022-08-19T02:07:00;23.30;21.10
10245;DHT22;5167;52.164;10.530;2022-08-19T02:09:26;23.20;21.70
10245;DHT22;5167;52.164;10.530;2022-08-19T02:11:52;23.30;21.90
10245;DHT22;5167;52.164;10.530;2022-08-19T02:14:18;23.30;21.60
10245;DHT22;5167;52.164;10.530;2022-08-19T02:16:44;23.30;21.80
10245;DHT22;5167;52.164;10.530;2022-08-19T02:19:09;23.20;21.90
10245;DHT22;5167;52.164;10.530;2022-08-19T02:21:35;23.30;21.80
10245;DHT22;5167;52.164;10.530;2022-08-19T02:24:02;23.30;21.80
10245;DHT22;5167;52.164;10.530;2022-08-19T02:26:28;23.10;21.40
10245;DHT22;5167;52.164;10.530;2022-08-19T02:28:54;23.20;21.30
10245;DHT22;5167;52.164;10.530;2022-08-19T02:31:22;23.10;21.50
10245;DHT22;5167;52.164;10.530;2022-08-19T02:33:48;23.10;21.70
10245;DHT22;5167;52.164;10.530;2022-08-19T02:36:15;23.10;22.00
10245;DHT22;5167;52.164;10.530;2022-08-19T02:38:42;23.10;21.80
10245;DHT22;5167;52.164;10.530;2022-08-19T02:41:22;23.10;21.30
10245;DHT22;5167;52.164;10.530;2022-08-19T02:43:48;23.00;22.30
10245;DHT22;5167;52.164;10.530;2022-08-19T02:46:17;23.00;22.60
10245;DHT22;5167;52.164;10.530;2022-08-19T02:48:47;23.00;22.60
10245;DHT22;5167;52.164;10.530;2022-08-19T02:51:24;22.90;22.90
10245;DHT22;5167;52.164;10.530;2022-08-19T02:53:51;23.00;23.70
10245;DHT22;5167;52.164;10.530;2022-08-19T02:56:17;22.90;23.40
10245;DHT22;5167;52.164;10.530;2022-08-19T02:58:43;22.90;23.90
10245;DHT22;5167;52.164;10.530;2022-08-19T03:01:10;22.90;24.30
10245;DHT22;5167;52.164;10.530;2022-08-19T03:03:36;22.90;24.70
10245;DHT22;5167;52.164;10.530;2022-08-19T03:06:11;22.90;24.30
10245;DHT22;5167;52.164;10.530;2022-08-19T03:08:39;22.90;24.00
10245;DHT22;5167;52.164;10.530;2022-08-19T03:11:05;22.80;23.70
10245;DHT22;5167;52.164;10.530;2022-08-19T03:13:31;22.80;24.00
10245;DHT22;5167;52.164;10.530;2022-08-19T03:15:57;22.80;24.30
10245;DHT22;5167;52.164;10.530;2022-08-19T03:18:22;22.70;24.70
10245;DHT22;5167;52.164;10.530;2022-08-19T03:20:50;22.70;24.80
10245;DHT22;5167;52.164;10.530;2022-08-19T03:23:18;22.80;24.80
10245;DHT22;5167;52.164;10.530;2022-08-19T03:25:45;22.70;24.40
10245;DHT22;5167;52.164;10.530;2022-08-19T03:28:13;22.70;25.20
10245;DHT22;5167;52.164;10.530;2022-08-19T03:30:40;22.70;25.00
10245;DHT22;5167;52.164;10.530;2022-08-19T03:33:10;22.60;25.50
10245;DHT22;5167;52.164;10.530;2022-08-19T03:35:37;22.60;25.30
10245;DHT22;5167;52.164;10.530;2022-08-19T03:38:06;22.60;25.60
10245;DHT22;5167;52.164;10.530;2022-08-19T03:40:32;22.60;25.70
10245;DHT22;5167;52.164;10.530;2022-08-19T03:43:01;22.60;25.20
10245;DHT22;5167;52.164;10.530;2022-08-19T03:45:27;22.60;25.70
10245;DHT22;5167;52.164;10.530;2022-08-19T03:47:53;22.60;25.40
10245;DHT22;5167;52.164;10.530;2022-08-19T03:50:19;22.60;25.20
10245;DHT22;5167;52.164;10.530;2022-08-19T03:52:51;22.60;25.30
10245;DHT22;5167;52.164;10.530;2022-08-19T03:55:18;22.50;24.90
10245;DHT22;5167;52.164;10.530;2022-08-19T03:57:44;22.50;24.50
10245;DHT22;5167;52.164;10.530;2022-08-19T04:00:11;22.50;24.70
10245;DHT22;5167;52.164;10.530;2022-08-19T04:02:37;22.40;25.10
10245;DHT22;5167;52.164;10.530;2022-08-19T04:05:03;22.30;25.60
10245;DHT22;5167;52.164;10.530;2022-08-19T04:07:28;22.40;25.40
10245;DHT22;5167;52.164;10.530;2022-08-19T04:09:54;22.30;26.00
10245;DHT22;5167;52.164;10.530;2022-08-19T04:12:20;22.30;25.90
10245;DHT22;5167;52.164;10.530;2022-08-19T04:14:46;22.30;25.60
10245;DHT22;5167;52.164;10.530;2022-08-19T04:17:11;22.30;25.40
10245;DHT22;5167;52.164;10.530;2022-08-19T04:19:39;22.30;25.90
10245;DHT22;5167;52.164;10.530;2022-08-19T04:22:05;22.30;25.80
10245;DHT22;5167;52.164;10.530;2022-08-19T04:24:33;22.30;25.90
10245;DHT22;5167;52.164;10.530;2022-08-19T04:27:02;22.30;25.80
10245;DHT22;5167;52.164;10.530;2022-08-19T04:29:28;22.20;25.80
10245;DHT22;5167;52.164;10.530;2022-08-19T04:31:55;22.20;25.80
10245;DHT22;5167;52.164;10.530;2022-08-19T04:34:24;22.30;26.80
10245;DHT22;5167;52.164;10.530;2022-08-19T04:36:51;22.30;26.20
10245;DHT22;5167;52.164;10.530;2022-08-19T04:39:21;22.20;26.10
10245;DHT22;5167;52.164;10.530;2022-08-19T04:41:47;22.20;26.70
10245;DHT22;5167;52.164;10.530;2022-08-19T04:44:34;22.10;26.20
10245;DHT22;5167;52.164;10.530;2022-08-19T04:46:59;22.20;26.40
10245;DHT22;5167;52.164;10.530;2022-08-19T04:49:25;22.20;26.00
10245;DHT22;5167;52.164;10.530;2022-08-19T04:51:53;22.10;26.80
10245;DHT22;5167;52.164;10.530;2022-08-19T04:54:24;22.10;26.20
10245;DHT22;5167;52.164;10.530;2022-08-19T04:56:51;22.10;26.60
10245;DHT22;5167;52.164;10.530;2022-08-19T04:59:17;22.10;27.30
10245;DHT22;5167;52.164;10.530;2022-08-19T05:01:44;22.00;27.90
10245;DHT22;5167;52.164;10.530;2022-08-19T05:04:13;22.00;28.10
10245;DHT22;5167;52.164;10.530;2022-08-19T05:06:39;22.00;28.70
10245;DHT22;5167;52.164;10.530;2022-08-19T05:09:05;22.00;28.80
10245;DHT22;5167;52.164;10.530;2022-08-19T05:11:35;22.00;29.00
10245;DHT22;5167;52.164;10.530;2022-08-19T05:14:04;21.90;29.00
10245;DHT22;5167;52.164;10.530;2022-08-19T05:16:30;21.90;28.50
10245;DHT22;5167;52.164;10.530;2022-08-19T05:18:56;21.90;29.80
10245;DHT22;5167;52.164;10.530;2022-08-19T05:21:42;21.90;29.80
10245;DHT22;5167;52.164;10.530;2022-08-19T05:24:27;21.90;29.90
10245;DHT22;5167;52.164;10.530;2022-08-19T05:26:53;21.80;29.70
10245;DHT22;5167;52.164;10.530;2022-08-19T05:29:23;21.80;29.90
10245;DHT22;5167;52.164;10.530;2022-08-19T05:31:49;21.70;29.50
10245;DHT22;5167;52.164;10.530;2022-08-19T05:34:16;21.80;30.20
10245;DHT22;5167;52.164;10.530;2022-08-19T05:36:43;21.80;29.50
10245;DHT22;5167;52.164;10.530;2022-08-19T05:39:17;21.80;29.80
10245;DHT22;5167;52.164;10.530;2022-08-19T05:41:45;21.70;30.20
10245;DHT22;5167;52.164;10.530;2022-08-19T05:44:12;21.70;30.20
10245;DHT22;5167;52.164;10.530;2022-08-19T05:46:39;21.70;29.90
10245;DHT22;5167;52.164;10.530;2022-08-19T05:49:07;21.70;29.80
10245;DHT22;5167;52.164;10.530;2022-08-19T05:51:35;21.80;29.30
10245;DHT22;5167;52.164;10.530;2022-08-19T05:54:03;21.80;29.10
10245;DHT22;5167;52.164;10.530;2022-08-19T05:56:28;21.80;29.50
10245;DHT22;5167;52.164;10.530;2022-08-19T05:58:56;21.80;29.00
10245;DHT22;5167;52.164;10.530;2022-08-19T06:01:22;21.80;28.90
10245;DHT22;5167;52.164;10.530;2022-08-19T06:03:48;21.70;28.80
10245;DHT22;5167;52.164;10.530;2022-08-19T06:06:15;21.70;28.30
10245;DHT22;5167;52.164;10.530;2022-08-19T06:08:41;21.70;28.40
10245;DHT22;5167;52.164;10.530;2022-08-19T06:11:23;21.70;29.30
10245;DHT22;5167;52.164;10.530;2022-08-19T06:13:51;21.70;29.20
10245;DHT22;5167;52.164;10.530;2022-08-19T06:16:22;21.70;28.50
10245;DHT22;5167;52.164;10.530;2022-08-19T06:18:56;21.70;29.30
10245;DHT22;5167;52.164;10.530;2022-08-19T06:21:24;21.70;29.00
10245;DHT22;5167;52.164;10.530;2022-08-19T06:23:51;21.70;28.60
10245;DHT22;5167;52.164;10.530;2022-08-19T06:26:18;21.70;28.20
10245;DHT22;5167;52.164;10.530;2022-08-19T06:28:45;21.70;28.90
10245;DHT22;5167;52.164;10.530;2022-08-19T06:31:32;21.70;29.30
10245;DHT22;5167;52.164;10.530;2022-08-19T06:34:00;21.70;29.60
10245;DHT22;5167;52.164;10.530;2022-08-19T06:36:30;21.70;29.50
10245;DHT22;5167;52.164;10.530;2022-08-19T06:39:05;21.60;29.30
10245;DHT22;5167;52.164;10.530;2022-08-19T06:41:34;21.70;29.50
10245;DHT22;5167;52.164;10.530;2022-08-19T06:44:00;21.80;29.90
10245;DHT22;5167;52.164;10.530;2022-08-19T06:46:26;21.80;29.30
10245;DHT22;5167;52.164;10.530;2022-08-19T06:48:53;21.80;28.60
10245;DHT22;5167;52.164;10.530;2022-08-19T06:51:20;21.80;27.50
10245;DHT22;5167;52.164;10.530;2022-08-19T06:53:49;21.80;27.20
10245;DHT22;5167;52.164;10.530;2022-08-19T06:56:17;21.90;27.50
10245;DHT22;5167;52.164;10.530;2022-08-19T06:58:43;21.90;26.30
10245;DHT22;5167;52.164;10.530;2022-08-19T07:01:09;21.90;26.90
10245;DHT22;5167;52.164;10.530;2022-08-19T07:03:37;21.80;26.80
10245;DHT22;5167;52.164;10.530;2022-08-19T07:06:11;21.80;27.20
10245;DHT22;5167;52.164;10.530;2022-08-19T07:08:37;21.80;26.80
10245;DHT22;5167;52.164;10.530;2022-08-19T07:11:11;21.90;26.30
10245;DHT22;5167;52.164;10.530;2022-08-19T07:13:39;21.90;24.90
10245;DHT22;5167;52.164;10.530;2022-08-19T07:16:06;21.80;25.30
10245;DHT22;5167;52.164;10.530;2022-08-19T07:18:32;21.80;24.60
10245;DHT22;5167;52.164;10.530;2022-08-19T07:21:13;21.80;25.00
10245;DHT22;5167;52.164;10.530;2022-08-19T07:23:40;21.90;25.70
10245;DHT22;5167;52.164;10.530;2022-08-19T07:26:21;21.90;24.40
10245;DHT22;5167;52.164;10.530;2022-08-19T07:28:48;21.90;23.70
10245;DHT22;5167;52.164;10.530;2022-08-19T07:31:17;21.90;23.10
10245;DHT22;5167;52.164;10.530;2022-08-19T07:33:47;21.90;23.10
10245;DHT22;5167;52.164;10.530;2022-08-19T07:36:16;21.80;22.80
10245;DHT22;5167;52.164;10.530;2022-08-19T07:38:43;21.90;23.10
10245;DHT22;5167;52.164;10.530;2022-08-19T07:41:11;21.90;23.30
10245;DHT22;5167;52.164;10.530;2022-08-19T07:43:38;21.80;23.00
10245;DHT22;5167;52.164;10.530;2022-08-19T07:46:04;21.90;23.40
10245;DHT22;5167;52.164;10.530;2022-08-19T07:48:31;21.90;23.10
10245;DHT22;5167;52.164;10.530;2022-08-19T07:50:59;21.90;23.80
10245;DHT22;5167;52.164;10.530;2022-08-19T07:53:29;21.90;23.40
10245;DHT22;5167;52.164;10.530;2022-08-19T07:55:55;21.90;23.70
10245;DHT22;5167;52.164;10.530;2022-08-19T07:58:31;22.10;23.20
10245;DHT22;5167;52.164;10.530;2022-08-19T08:00:57;21.90;23.00
10245;DHT22;5167;52.164;10.530;2022-08-19T08:03:23;22.00;22.90
10245;DHT22;5167;52.164;10.530;2022-08-19T08:06:09;22.00;23.00
10245;DHT22;5167;52.164;10.530;2022-08-19T08:08:53;22.00;22.40
10245;DHT22;5167;52.164;10.530;2022-08-19T08:11:53;22.00;21.80
10245;DHT22;5167;52.164;10.530;2022-08-19T08:14:23;22.00;21.80
10245;DHT22;5167;52.164;10.530;2022-08-19T08:16:51;22.00;21.30
10245;DHT22;5167;52.164;10.530;2022-08-19T08:19:22;22.00;21.50
10245;DHT22;5167;52.164;10.530;2022-08-19T08:21:49;22.00;21.90
10245;DHT22;5167;52.164;10.530;2022-08-19T08:24:16;22.00;22.00
10245;DHT22;5167;52.164;10.530;2022-08-19T08:26:42;21.90;21.40
10245;DHT22;5167;52.164;10.530;2022-08-19T08:29:12;22.00;21.00
10245;DHT22;5167;52.164;10.530;2022-08-19T08:31:40;22.10;21.40
10245;DHT22;5167;52.164;10.530;2022-08-19T08:34:06;22.00;20.80
10245;DHT22;5167;52.164;10.530;2022-08-19T08:36:32;22.10;20.20
10245;DHT22;5167;52.164;10.530;2022-08-19T08:39:00;22.20;18.70
10245;DHT22;5167;52.164;10.530;2022-08-19T08:47:03;22.20;19.40
10245;DHT22;5167;52.164;10.530;2022-08-19T08:52:28;22.30;20.00
10245;DHT22;5167;52.164;10.530;2022-08-19T08:54:57;22.40;19.50
10245;DHT22;5167;52.164;10.530;2022-08-19T08:59:54;22.50;19.30
10245;DHT22;5167;52.164;10.530;2022-08-19T09:02:22;22.50;18.20
10245;DHT22;5167;52.164;10.530;2022-08-19T09:04:48;22.50;18.40
10245;DHT22;5167;52.164;10.530;2022-08-19T09:07:44;22.60;18.50
10245;DHT22;5167;52.164;10.530;2022-08-19T09:10:25;22.60;17.60
10245;DHT22;5167;52.164;10.530;2022-08-19T09:15:56;22.80;15.70
10245;DHT22;5167;52.164;10.530;2022-08-19T09:18:20;22.90;16.10
10245;DHT22;5167;52.164;10.530;2022-08-19T09:20:46;22.90;12.90
10245;DHT22;5167;52.164;10.530;2022-08-19T09:23:15;22.90;13.20
10245;DHT22;5167;52.164;10.530;2022-08-19T09:25:41;23.00;11.90
10245;DHT22;5167;52.164;10.530;2022-08-19T09:28:07;23.00;11.70
10245;DHT22;5167;52.164;10.530;2022-08-19T09:30:36;22.90;12.10
10245;DHT22;5167;52.164;10.530;2022-08-19T09:33:04;22.90;12.20
10245;DHT22;5167;52.164;10.530;2022-08-19T09:35:30;23.00;13.30
10245;DHT22;5167;52.164;10.530;2022-08-19T09:37:57;23.00;12.80
10245;DHT22;5167;52.164;10.530;2022-08-19T09:40:23;23.10;12.50
10245;DHT22;5167;52.164;10.530;2022-08-19T09:42:50;23.00;11.60
10245;DHT22;5167;52.164;10.530;2022-08-19T09:45:19;23.10;12.30
10245;DHT22;5167;52.164;10.530;2022-08-19T09:47:46;23.10;12.00
10245;DHT22;5167;52.164;10.530;2022-08-19T09:50:12;23.10;12.50
10245;DHT22;5167;52.164;10.530;2022-08-19T09:52:38;23.10;12.80
10245;DHT22;5167;52.164;10.530;2022-08-19T09:55:08;23.10;12.70
10245;DHT22;5167;52.164;10.530;2022-08-19T09:57:35;23.10;12.10
10245;DHT22;5167;52.164;10.530;2022-08-19T10:00:01;23.20;10.50
10245;DHT22;5167;52.164;10.530;2022-08-19T10:02:27;23.20;10.00
10245;DHT22;5167;52.164;10.530;2022-08-19T10:04:52;23.10;10.50
10245;DHT22;5167;52.164;10.530;2022-08-19T10:07:37;23.10;10.10
10245;DHT22;5167;52.164;10.530;2022-08-19T10:10:04;23.10;9.40
10245;DHT22;5167;52.164;10.530;2022-08-19T10:12:31;23.10;9.20
10245;DHT22;5167;52.164;10.530;2022-08-19T10:14:59;23.10;8.80
10245;DHT22;5167;52.164;10.530;2022-08-19T10:17:25;23.10;9.40
10245;DHT22;5167;52.164;10.530;2022-08-19T10:19:51;23.10;9.60
10245;DHT22;5167;52.164;10.530;2022-08-19T10:22:18;23.30;9.90
10245;DHT22;5167;52.164;10.530;2022-08-19T10:24:47;23.20;9.40
10245;DHT22;5167;52.164;10.530;2022-08-19T10:27:13;23.30;8.00
10245;DHT22;5167;52.164;10.530;2022-08-19T10:29:39;23.40;8.80
10245;DHT22;5167;52.164;10.530;2022-08-19T10:32:07;23.40;8.50
10245;DHT22;5167;52.164;10.530;2022-08-19T10:34:35;23.50;8.80
10245;DHT22;5167;52.164;10.530;2022-08-19T10:37:02;23.60;8.00
10245;DHT22;5167;52.164;10.530;2022-08-19T10:39:33;23.60;8.20
10245;DHT22;5167;52.164;10.530;2022-08-19T10:42:04;23.60;7.50
10245;DHT22;5167;52.164;10.530;2022-08-19T10:44:32;23.70;6.60
10245;DHT22;5167;52.164;10.530;2022-08-19T10:46:58;23.70;5.90
10245;DHT22;5167;52.164;10.530;2022-08-19T10:49:24;23.80;6.20
10245;DHT22;5167;52.164;10.530;2022-08-19T10:51:49;23.80;7.50
10245;DHT22;5167;52.164;10.530;2022-08-19T10:54:33;24.00;6.80
10245;DHT22;5167;52.164;10.530;2022-08-19T10:57:17;24.20;5.00
10245;DHT22;5167;52.164;10.530;2022-08-19T10:59:43;24.40;5.80
10245;DHT22;5167;52.164;10.530;2022-08-19T11:02:10;24.60;5.00
10245;DHT22;5167;52.164;10.530;2022-08-19T11:04:38;24.80;5.00
10245;DHT22;5167;52.164;10.530;2022-08-19T11:07:05;24.90;5.00
10245;DHT22;5167;52.164;10.530;2022-08-19T11:09:31;25.10;5.00
10245;DHT22;5167;52.164;10.530;2022-08-19T11:12:02;25.30;5.00
10245;DHT22;5167;52.164;10.530;2022-08-19T11:14:27;25.50;5.00
10245;DHT22;5167;52.164;10.530;2022-08-19T11:16:56;25.70;5.00
10245;DHT22;5167;52.164;10.530;2022-08-19T11:19:22;25.80;5.00
10245;DHT22;5167;52.164;10.530;2022-08-19T11:21:50;25.90;5.00
10245;DHT22;5167;52.164;10.530;2022-08-19T11:24:25;26.00;5.00
10245;DHT22;5167;52.164;10.530;2022-08-19T11:26:53;26.20;5.00
10245;DHT22;5167;52.164;10.530;2022-08-19T11:29:24;26.30;5.00
10245;DHT22;5167;52.164;10.530;2022-08-19T11:31:51;26.40;5.00
10245;DHT22;5167;52.164;10.530;2022-08-19T11:34:23;26.50;5.00
10245;DHT22;5167;52.164;10.530;2022-08-19T11:36:50;26.70;5.00
10245;DHT22;5167;52.164;10.530;2022-08-19T11:39:19;26.80;5.00
10245;DHT22;5167;52.164;10.530;2022-08-19T11:41:45;26.80;5.00
10245;DHT22;5167;52.164;10.530;2022-08-19T11:44:11;26.90;5.00
10245;DHT22;5167;52.164;10.530;2022-08-19T11:46:40;26.90;5.00
10245;DHT22;5167;52.164;10.530;2022-08-19T11:49:06;27.00;5.00
10245;DHT22;5167;52.164;10.530;2022-08-19T11:51:33;26.90;5.00
10245;DHT22;5167;52.164;10.530;2022-08-19T11:53:59;27.00;5.00
10245;DHT22;5167;52.164;10.530;2022-08-19T11:56:26;26.90;5.00
10245;DHT22;5167;52.164;10.530;2022-08-19T11:58:52;26.90;5.00
10245;DHT22;5167;52.164;10.530;2022-08-19T12:01:21;26.90;5.00
10245;DHT22;5167;52.164;10.530;2022-08-19T12:03:49;26.90;5.00
10245;DHT22;5167;52.164;10.530;2022-08-19T12:06:17;26.90;5.00
10245;DHT22;5167;52.164;10.530;2022-08-19T12:08:44;27.00;5.00
10245;DHT22;5167;52.164;10.530;2022-08-19T12:11:11;27.00;5.00
10245;DHT22;5167;52.164;10.530;2022-08-19T12:13:38;27.10;5.00
10245;DHT22;5167;52.164;10.530;2022-08-19T12:16:18;27.10;5.00
10245;DHT22;5167;52.164;10.530;2022-08-19T12:18:44;27.20;5.00
10245;DHT22;5167;52.164;10.530;2022-08-19T12:21:14;27.20;5.00
10245;DHT22;5167;52.164;10.530;2022-08-19T12:23:41;27.20;5.00
10245;DHT22;5167;52.164;10.530;2022-08-19T12:26:08;27.30;5.00
10245;DHT22;5167;52.164;10.530;2022-08-19T12:28:34;27.30;5.00
10245;DHT22;5167;52.164;10.530;2022-08-19T12:30:59;27.30;5.00
10245;DHT22;5167;52.164;10.530;2022-08-19T12:33:25;27.30;5.00
10245;DHT22;5167;52.164;10.530;2022-08-19T12:35:53;27.40;5.00
10245;DHT22;5167;52.164;10.530;2022-08-19T12:38:19;27.40;5.00
10245;DHT22;5167;52.164;10.530;2022-08-19T12:40:46;27.40;5.00
10245;DHT22;5167;52.164;10.530;2022-08-19T12:43:12;27.40;5.00
10245;DHT22;5167;52.164;10.530;2022-08-19T12:45:39;27.30;5.00
10245;DHT22;5167;52.164;10.530;2022-08-19T12:48:05;27.40;5.00
10245;DHT22;5167;52.164;10.530;2022-08-19T12:50:31;27.30;5.00
10245;DHT22;5167;52.164;10.530;2022-08-19T12:52:57;27.30;5.00
10245;DHT22;5167;52.164;10.530;2022-08-19T12:55:23;27.40;5.00
10245;DHT22;5167;52.164;10.530;2022-08-19T12:57:50;27.40;5.00
10245;DHT22;5167;52.164;10.530;2022-08-19T13:00:18;27.40;5.00
10245;DHT22;5167;52.164;10.530;2022-08-19T13:02:47;27.40;5.00
10245;DHT22;5167;52.164;10.530;2022-08-19T13:05:18;27.40;5.00
10245;DHT22;5167;52.164;10.530;2022-08-19T13:07:46;27.50;5.00
10245;DHT22;5167;52.164;10.530;2022-08-19T13:10:13;27.50;5.00
10245;DHT22;5167;52.164;10.530;2022-08-19T13:12:41;27.60;5.00
10245;DHT22;5167;52.164;10.530;2022-08-19T13:15:07;27.60;5.00
10245;DHT22;5167;52.164;10.530;2022-08-19T13:17:34;27.60;5.00
10245;DHT22;5167;52.164;10.530;2022-08-19T13:20:01;27.60;5.00
10245;DHT22;5167;52.164;10.530;2022-08-19T13:22:26;27.70;5.00
10245;DHT22;5167;52.164;10.530;2022-08-19T13:24:52;27.70;5.00
10245;DHT22;5167;52.164;10.530;2022-08-19T13:27:18;27.70;5.00
10245;DHT22;5167;52.164;10.530;2022-08-19T13:29:44;27.60;5.00
10245;DHT22;5167;52.164;10.530;2022-08-19T13:32:35;27.60;5.00
10245;DHT22;5167;52.164;10.530;2022-08-19T13:35:20;27.60;5.00
10245;DHT22;5167;52.164;10.530;2022-08-19T13:37:45;27.60;5.00
10245;DHT22;5167;52.164;10.530;2022-08-19T13:40:17;27.50;5.00
10245;DHT22;5167;52.164;10.530;2022-08-19T13:42:46;27.60;5.00
10245;DHT22;5167;52.164;10.530;2022-08-19T13:45:14;27.60;5.00
10245;DHT22;5167;52.164;10.530;2022-08-19T13:47:41;27.50;5.00
10245;DHT22;5167;52.164;10.530;2022-08-19T13:50:12;27.50;5.00
10245;DHT22;5167;52.164;10.530;2022-08-19T13:52:39;27.50;5.00
10245;DHT22;5167;52.164;10.530;2022-08-19T13:55:06;27.40;5.00
10245;DHT22;5167;52.164;10.530;2022-08-19T13:57:32;27.50;5.00
10245;DHT22;5167;52.164;10.530;2022-08-19T13:59:58;27.50;5.00
10245;DHT22;5167;52.164;10.530;2022-08-19T14:02:24;27.40;5.00
10245;DHT22;5167;52.164;10.530;2022-08-19T14:04:50;27.30;5.00
10245;DHT22;5167;52.164;10.530;2022-08-19T14:07:15;27.40;5.00
10245;DHT22;5167;52.164;10.530;2022-08-19T14:09:41;27.40;5.00
10245;DHT22;5167;52.164;10.530;2022-08-19T14:12:07;27.50;5.00
10245;DHT22;5167;52.164;10.530;2022-08-19T14:14:37;27.60;5.00
10245;DHT22;5167;52.164;10.530;2022-08-19T14:17:06;27.50;5.00
10245;DHT22;5167;52.164;10.530;2022-08-19T14:19:32;27.50;5.00
10245;DHT22;5167;52.164;10.530;2022-08-19T14:21:57;27.60;5.00
10245;DHT22;5167;52.164;10.530;2022-08-19T14:24:23;27.60;5.00
10245;DHT22;5167;52.164;10.530;2022-08-19T14:26:48;27.60;5.00
10245;DHT22;5167;52.164;10.530;2022-08-19T14:29:14;27.60;5.00
10245;DHT22;5167;52.164;10.530;2022-08-19T14:31:40;27.60;5.00
10245;DHT22;5167;52.164;10.530;2022-08-19T14:34:08;27.60;5.00
10245;DHT22;5167;52.164;10.530;2022-08-19T14:36:35;27.70;5.00
10245;DHT22;5167;52.164;10.530;2022-08-19T14:39:01;27.70;5.00
10245;DHT22;5167;52.164;10.530;2022-08-19T14:41:26;27.70;5.00
10245;DHT22;5167;52.164;10.530;2022-08-19T14:43:53;27.80;5.00
10245;DHT22;5167;52.164;10.530;2022-08-19T14:46:21;27.80;5.00
10245;DHT22;5167;52.164;10.530;2022-08-19T14:48:48;27.80;5.00
10245;DHT22;5167;52.164;10.530;2022-08-19T14:51:16;27.80;5.00
10245;DHT22;5167;52.164;10.530;2022-08-19T14:53:42;27.80;5.00
10245;DHT22;5167;52.164;10.530;2022-08-19T14:56:10;27.80;5.00
10245;DHT22;5167;52.164;10.530;2022-08-19T14:58:37;27.80;5.00
10245;DHT22;5167;52.164;10.530;2022-08-19T15:01:03;27.80;5.00
10245;DHT22;5167;52.164;10.530;2022-08-19T15:03:29;27.80;5.00
10245;DHT22;5167;52.164;10.530;2022-08-19T15:05:55;27.80;5.00
10245;DHT22;5167;52.164;10.530;2022-08-19T15:08:22;27.80;5.00
10245;DHT22;5167;52.164;10.530;2022-08-19T15:10:50;27.70;5.00
10245;DHT22;5167;52.164;10.530;2022-08-19T15:13:16;27.70;5.00
10245;DHT22;5167;52.164;10.530;2022-08-19T15:15:42;27.70;5.00
10245;DHT22;5167;52.164;10.530;2022-08-19T15:18:08;27.80;5.00
10245;DHT22;5167;52.164;10.530;2022-08-19T15:20:33;27.70;5.00
10245;DHT22;5167;52.164;10.530;2022-08-19T15:22:59;27.70;5.00
10245;DHT22;5167;52.164;10.530;2022-08-19T15:25:26;27.60;5.00
10245;DHT22;5167;52.164;10.530;2022-08-19T15:27:52;27.70;5.00
10245;DHT22;5167;52.164;10.530;2022-08-19T15:30:24;27.80;5.00
10245;DHT22;5167;52.164;10.530;2022-08-19T15:32:50;27.70;5.00
10245;DHT22;5167;52.164;10.530;2022-08-19T15:35:18;27.70;5.00
10245;DHT22;5167;52.164;10.530;2022-08-19T15:37:44;27.70;5.00
10245;DHT22;5167;52.164;10.530;2022-08-19T15:40:11;27.70;5.00
10245;DHT22;5167;52.164;10.530;2022-08-19T15:42:37;27.70;5.00
10245;DHT22;5167;52.164;10.530;2022-08-19T15:45:07;27.80;5.00
10245;DHT22;5167;52.164;10.530;2022-08-19T15:47:34;27.80;5.00
10245;DHT22;5167;52.164;10.530;2022-08-19T15:50:00;27.80;5.00
10245;DHT22;5167;52.164;10.530;2022-08-19T15:52:25;27.80;5.00
10245;DHT22;5167;52.164;10.530;2022-08-19T15:54:51;27.70;5.00
10245;DHT22;5167;52.164;10.530;2022-08-19T15:57:17;27.80;5.00